sensor_id;sensor_type;location;lat;lon;timestamp;temperature;humidity
69543;SHT31;56762;49.494;11.768;2023-08-17T00:02:13;18.99;88.99
69543;SHT31;56762;49.494;11.768;2023-08-17T00:04:41;18.96;89.44
69543;SHT31;56762;49.494;11.768;2023-08-17T00:07:10;18.95;89.50
69543;SHT31;56762;49.494;11.768;2023-08-17T00:09:38;18.96;89.67
69543;SHT31;56762;49.494;11.768;2023-08-17T00:12:06;18.92;89.56
69543;SHT31;56762;49.494;11.768;2023-08-17T00:14:34;18.95;89.84
69543;SHT31;56762;49.494;11.768;2023-08-17T00:17:02;18.95;89.77
69543;SHT31;56762;49.494;11.768;2023-08-17T00:19:30;18.92;89.72
69543;SHT31;56762;49.494;11.768;2023-08-17T00:21:58;18.96;89.71
69543;SHT31;56762;49.494;11.768;2023-08-17T00:24:27;18.93;89.56
69543;SHT31;56762;49.494;11.768;2023-08-17T00:26:55;18.96;89.44
69543;SHT31;56762;49.494;11.768;2023-08-17T00:29:23;18.92;89.41
69543;SHT31;56762;49.494;11.768;2023-08-17T00:31:51;18.90;89.56
69543;SHT31;56762;49.494;11.768;2023-08-17T00:34:19;18.90;89.40
69543;SHT31;56762;49.494;11.768;2023-08-17T00:36:47;18.89;89.62
69543;SHT31;56762;49.494;11.768;2023-08-17T00:39:14;18.83;89.60
69543;SHT31;56762;49.494;11.768;2023-08-17T00:41:44;18.79;89.70
69543;SHT31;56762;49.494;11.768;2023-08-17T00:44:11;18.76;89.70
69543;SHT31;56762;49.494;11.768;2023-08-17T00:46:40;18.77;89.61
69543;SHT31;56762;49.494;11.768;2023-08-17T00:49:07;18.80;89.44
69543;SHT31;56762;49.494;11.768;2023-08-17T00:51:35;18.73;89.70
69543;SHT31;56762;49.494;11.768;2023-08-17T00:54:04;18.70;89.81
69543;SHT31;56762;49.494;11.768;2023-08-17T00:56:31;18.68;90.04
69543;SHT31;56762;49.494;11.768;2023-08-17T00:59:01;18.66;90.15
69543;SHT31;56762;49.494;11.768;2023-08-17T01:01:30;18.63;90.10
69543;SHT31;56762;49.494;11.768;2023-08-17T01:03:58;18.65;90.14
69543;SHT31;56762;49.494;11.768;2023-08-17T01:06:25;18.65;89.94
69543;SHT31;56762;49.494;11.768;2023-08-17T01:08:53;18.63;89.95
69543;SHT31;56762;49.494;11.768;2023-08-17T01:11:28;18.62;89.83
69543;SHT31;56762;49.494;11.768;2023-08-17T01:14:04;18.62;89.87
69543;SHT31;56762;49.494;11.768;2023-08-17T01:16:36;18.59;89.88
69543;SHT31;56762;49.494;11.768;2023-08-17T01:19:07;18.56;90.00
69543;SHT31;56762;49.494;11.768;2023-08-17T01:21:39;18.55;89.99
69543;SHT31;56762;49.494;11.768;2023-08-17T01:24:11;18.55;90.23
69543;SHT31;56762;49.494;11.768;2023-08-17T01:26:38;18.53;90.23
69543;SHT31;56762;49.494;11.768;2023-08-17T01:29:07;18.52;90.44
69543;SHT31;56762;49.494;11.768;2023-08-17T01:31:40;18.52;90.54
69543;SHT31;56762;49.494;11.768;2023-08-17T01:34:14;18.52;90.47
69543;SHT31;56762;49.494;11.768;2023-08-17T01:36:49;18.53;90.25
69543;SHT31;56762;49.494;11.768;2023-08-17T01:39:21;18.52;90.21
69543;SHT31;56762;49.494;11.768;2023-08-17T01:41:52;18.52;90.02
69543;SHT31;56762;49.494;11.768;2023-08-17T01:44:20;18.55;89.89
69543;SHT31;56762;49.494;11.768;2023-08-17T01:46:48;18.55;89.75
69543;SHT31;56762;49.494;11.768;2023-08-17T01:49:17;18.53;89.65
69543;SHT31;56762;49.494;11.768;2023-08-17T01:51:44;18.52;89.71
69543;SHT31;56762;49.494;11.768;2023-08-17T01:54:12;18.52;89.72
69543;SHT31;56762;49.494;11.768;2023-08-17T01:56:41;18.51;89.60
69543;SHT31;56762;49.494;11.768;2023-08-17T01:59:09;18.49;89.64
69543;SHT31;56762;49.494;11.768;2023-08-17T02:01:37;18.49;89.66
69543;SHT31;56762;49.494;11.768;2023-08-17T02:04:05;18.47;89.59
69543;SHT31;56762;49.494;11.768;2023-08-17T02:06:33;18.48;89.61
69543;SHT31;56762;49.494;11.768;2023-08-17T02:09:01;18.47;89.47
69543;SHT31;56762;49.494;11.768;2023-08-17T02:11:29;18.47;89.52
69543;SHT31;56762;49.494;11.768;2023-08-17T02:13:58;18.44;89.42
69543;SHT31;56762;49.494;11.768;2023-08-17T02:16:26;18.41;89.54
69543;SHT31;56762;49.494;11.768;2023-08-17T02:18:53;18.39;89.57
69543;SHT31;56762;49.494;11.768;2023-08-17T02:21:21;18.39;89.51
69543;SHT31;56762;49.494;11.768;2023-08-17T02:23:49;18.42;89.45
69543;SHT31;56762;49.494;11.768;2023-08-17T02:26:16;18.44;89.40
69543;SHT31;56762;49.494;11.768;2023-08-17T02:28:44;18.42;89.37
69543;SHT31;56762;49.494;11.768;2023-08-17T02:31:13;18.39;89.24
69543;SHT31;56762;49.494;11.768;2023-08-17T02:33:40;18.38;89.52
69543;SHT31;56762;49.494;11.768;2023-08-17T02:36:08;18.35;89.53
69543;SHT31;56762;49.494;11.768;2023-08-17T02:38:36;18.37;89.63
69543;SHT31;56762;49.494;11.768;2023-08-17T02:41:04;18.35;89.63
69543;SHT31;56762;49.494;11.768;2023-08-17T02:43:31;18.37;89.56
69543;SHT31;56762;49.494;11.768;2023-08-17T02:45:59;18.35;89.36
69543;SHT31;56762;49.494;11.768;2023-08-17T02:48:29;18.31;89.44
69543;SHT31;56762;49.494;11.768;2023-08-17T02:50:58;18.28;89.84
69543;SHT31;56762;49.494;11.768;2023-08-17T02:53:26;18.28;90.02
69543;SHT31;56762;49.494;11.768;2023-08-17T02:55:54;18.28;89.98
69543;SHT31;56762;49.494;11.768;2023-08-17T02:58:22;18.28;89.65
69543;SHT31;56762;49.494;11.768;2023-08-17T03:00:50;18.28;89.53
69543;SHT31;56762;49.494;11.768;2023-08-17T03:03:18;18.28;89.46
69543;SHT31;56762;49.494;11.768;2023-08-17T03:05:47;18.28;89.46
69543;SHT31;56762;49.494;11.768;2023-08-17T03:08:15;18.27;89.35
69543;SHT31;56762;49.494;11.768;2023-08-17T03:10:43;18.21;89.52
69543;SHT31;56762;49.494;11.768;2023-08-17T03:13:10;18.17;89.50
69543;SHT31;56762;49.494;11.768;2023-08-17T03:15:39;18.14;89.75
69543;SHT31;56762;49.494;11.768;2023-08-17T03:18:07;18.14;89.57
69543;SHT31;56762;49.494;11.768;2023-08-17T03:20:35;18.10;89.63
69543;SHT31;56762;49.494;11.768;2023-08-17T03:23:04;18.05;89.64
69543;SHT31;56762;49.494;11.768;2023-08-17T03:25:34;18.07;90.01
69543;SHT31;56762;49.494;11.768;2023-08-17T03:28:02;18.02;90.07
69543;SHT31;56762;49.494;11.768;2023-08-17T03:30:30;18.04;89.96
69543;SHT31;56762;49.494;11.768;2023-08-17T03:32:58;18.07;89.86
69543;SHT31;56762;49.494;11.768;2023-08-17T03:35:26;18.07;89.85
69543;SHT31;56762;49.494;11.768;2023-08-17T03:37:53;18.10;89.66
69543;SHT31;56762;49.494;11.768;2023-08-17T03:40:22;18.08;90.03
69543;SHT31;56762;49.494;11.768;2023-08-17T03:42:50;18.11;90.01
69543;SHT31;56762;49.494;11.768;2023-08-17T03:45:18;18.10;90.07
69543;SHT31;56762;49.494;11.768;2023-08-17T03:47:46;18.11;90.35
69543;SHT31;56762;49.494;11.768;2023-08-17T03:50:14;18.07;90.45
69543;SHT31;56762;49.494;11.768;2023-08-17T03:52:42;18.05;90.52
69543;SHT31;56762;49.494;11.768;2023-08-17T03:55:09;18.05;90.62
69543;SHT31;56762;49.494;11.768;2023-08-17T03:57:38;18.08;90.85
69543;SHT31;56762;49.494;11.768;2023-08-17T04:00:07;18.08;90.96
69543;SHT31;56762;49.494;11.768;2023-08-17T04:02:37;18.11;90.87
69543;SHT31;56762;49.494;11.768;2023-08-17T04:05:05;18.17;90.87
69543;SHT31;56762;49.494;11.768;2023-08-17T04:07:33;18.18;90.74
69543;SHT31;56762;49.494;11.768;2023-08-17T04:10:01;18.18;90.80
69543;SHT31;56762;49.494;11.768;2023-08-17T04:12:29;18.22;90.93
69543;SHT31;56762;49.494;11.768;2023-08-17T04:14:58;18.22;90.91
69543;SHT31;56762;49.494;11.768;2023-08-17T04:17:26;18.22;90.89
69543;SHT31;56762;49.494;11.768;2023-08-17T04:19:54;18.24;90.93
69543;SHT31;56762;49.494;11.768;2023-08-17T04:22:22;18.24;90.87
69543;SHT31;56762;49.494;11.768;2023-08-17T04:24:50;18.27;90.81
69543;SHT31;56762;49.494;11.768;2023-08-17T04:27:17;18.25;90.73
69543;SHT31;56762;49.494;11.768;2023-08-17T04:29:46;18.28;90.58
69543;SHT31;56762;49.494;11.768;2023-08-17T04:32:15;18.29;90.53
69543;SHT31;56762;49.494;11.768;2023-08-17T04:34:44;18.29;90.61
69543;SHT31;56762;49.494;11.768;2023-08-17T04:37:12;18.32;90.74
69543;SHT31;56762;49.494;11.768;2023-08-17T04:39:40;18.37;90.68
69543;SHT31;56762;49.494;11.768;2023-08-17T04:42:10;18.38;90.70
69543;SHT31;56762;49.494;11.768;2023-08-17T04:44:38;18.41;90.46
69543;SHT31;56762;49.494;11.768;2023-08-17T04:47:05;18.45;90.25
69543;SHT31;56762;49.494;11.768;2023-08-17T04:49:34;18.47;90.17
69543;SHT31;56762;49.494;11.768;2023-08-17T04:52:03;18.51;90.14
69543;SHT31;56762;49.494;11.768;2023-08-17T04:54:31;18.51;90.16
69543;SHT31;56762;49.494;11.768;2023-08-17T04:56:59;18.52;90.10
69543;SHT31;56762;49.494;11.768;2023-08-17T04:59:26;18.55;90.13
69543;SHT31;56762;49.494;11.768;2023-08-17T05:01:54;18.53;90.43
69543;SHT31;56762;49.494;11.768;2023-08-17T05:04:22;18.53;90.36
69543;SHT31;56762;49.494;11.768;2023-08-17T05:06:51;18.53;90.00
69543;SHT31;56762;49.494;11.768;2023-08-17T05:09:19;18.52;90.32
69543;SHT31;56762;49.494;11.768;2023-08-17T05:11:47;18.56;90.46
69543;SHT31;56762;49.494;11.768;2023-08-17T05:14:14;18.56;90.62
69543;SHT31;56762;49.494;11.768;2023-08-17T05:16:42;18.58;90.53
69543;SHT31;56762;49.494;11.768;2023-08-17T05:19:10;18.59;90.49
69543;SHT31;56762;49.494;11.768;2023-08-17T05:21:38;18.63;90.61
69543;SHT31;56762;49.494;11.768;2023-08-17T05:24:07;18.63;90.58
69543;SHT31;56762;49.494;11.768;2023-08-17T05:26:35;18.65;90.47
69543;SHT31;56762;49.494;11.768;2023-08-17T05:29:03;18.63;90.48
69543;SHT31;56762;49.494;11.768;2023-08-17T05:31:30;18.66;90.36
69543;SHT31;56762;49.494;11.768;2023-08-17T05:33:59;18.68;89.98
69543;SHT31;56762;49.494;11.768;2023-08-17T05:36:26;18.69;90.25
69543;SHT31;56762;49.494;11.768;2023-08-17T05:38:54;18.69;90.36
69543;SHT31;56762;49.494;11.768;2023-08-17T05:41:23;18.69;90.43
69543;SHT31;56762;49.494;11.768;2023-08-17T05:43:51;18.69;90.23
69543;SHT31;56762;49.494;11.768;2023-08-17T05:46:19;18.75;90.28
69543;SHT31;56762;49.494;11.768;2023-08-17T05:48:46;18.75;90.10
69543;SHT31;56762;49.494;11.768;2023-08-17T05:51:14;18.80;89.99
69543;SHT31;56762;49.494;11.768;2023-08-17T05:53:42;18.83;89.89
69543;SHT31;56762;49.494;11.768;2023-08-17T05:56:10;18.86;89.84
69543;SHT31;56762;49.494;11.768;2023-08-17T05:58:39;18.88;89.25
69543;SHT31;56762;49.494;11.768;2023-08-17T06:01:08;18.88;88.88
69543;SHT31;56762;49.494;11.768;2023-08-17T06:03:37;18.90;88.93
69543;SHT31;56762;49.494;11.768;2023-08-17T06:06:05;18.96;89.08
69543;SHT31;56762;49.494;11.768;2023-08-17T06:08:33;19.00;89.81
69543;SHT31;56762;49.494;11.768;2023-08-17T06:11:01;19.02;88.69
69543;SHT31;56762;49.494;11.768;2023-08-17T06:13:29;19.04;88.28
69543;SHT31;56762;49.494;11.768;2023-08-17T06:15:58;19.06;87.67
69543;SHT31;56762;49.494;11.768;2023-08-17T06:18:26;19.06;87.44
69543;SHT31;56762;49.494;11.768;2023-08-17T06:20:53;19.09;87.37
69543;SHT31;56762;49.494;11.768;2023-08-17T06:23:21;19.14;87.28
69543;SHT31;56762;49.494;11.768;2023-08-17T06:25:49;19.16;87.10
69543;SHT31;56762;49.494;11.768;2023-08-17T06:28:18;19.21;87.10
69543;SHT31;56762;49.494;11.768;2023-08-17T06:30:47;19.28;87.08
69543;SHT31;56762;49.494;11.768;2023-08-17T06:33:21;19.35;87.15
69543;SHT31;56762;49.494;11.768;2023-08-17T06:35:52;19.38;87.31
69543;SHT31;56762;49.494;11.768;2023-08-17T06:38:24;19.43;87.57
69543;SHT31;56762;49.494;11.768;2023-08-17T06:40:54;19.46;87.53
69543;SHT31;56762;49.494;11.768;2023-08-17T06:43:23;19.50;87.30
69543;SHT31;56762;49.494;11.768;2023-08-17T06:45:51;19.50;87.24
69543;SHT31;56762;49.494;11.768;2023-08-17T06:48:20;19.55;87.57
69543;SHT31;56762;49.494;11.768;2023-08-17T06:50:48;19.62;86.77
69543;SHT31;56762;49.494;11.768;2023-08-17T06:53:16;19.67;86.59
69543;SHT31;56762;49.494;11.768;2023-08-17T06:55:44;19.65;86.74
69543;SHT31;56762;49.494;11.768;2023-08-17T06:58:11;19.68;86.52
69543;SHT31;56762;49.494;11.768;2023-08-17T07:00:39;19.79;87.00
69543;SHT31;56762;49.494;11.768;2023-08-17T07:03:07;19.85;86.62
69543;SHT31;56762;49.494;11.768;2023-08-17T07:05:37;19.89;86.58
69543;SHT31;56762;49.494;11.768;2023-08-17T07:08:05;19.98;86.11
69543;SHT31;56762;49.494;11.768;2023-08-17T07:10:36;20.04;86.19
69543;SHT31;56762;49.494;11.768;2023-08-17T07:13:13;20.10;86.36
69543;SHT31;56762;49.494;11.768;2023-08-17T07:15:41;20.16;85.94
69543;SHT31;56762;49.494;11.768;2023-08-17T07:18:12;20.22;85.75
69543;SHT31;56762;49.494;11.768;2023-08-17T07:21:11;20.30;85.42
69543;SHT31;56762;49.494;11.768;2023-08-17T07:23:38;20.34;85.37
69543;SHT31;56762;49.494;11.768;2023-08-17T07:26:06;20.39;85.06
69543;SHT31;56762;49.494;11.768;2023-08-17T07:28:36;20.49;84.54
69543;SHT31;56762;49.494;11.768;2023-08-17T07:31:04;20.50;84.34
69543;SHT31;56762;49.494;11.768;2023-08-17T07:33:32;20.54;84.13
69543;SHT31;56762;49.494;11.768;2023-08-17T07:36:00;20.57;83.34
69543;SHT31;56762;49.494;11.768;2023-08-17T07:38:30;20.56;83.12
69543;SHT31;56762;49.494;11.768;2023-08-17T07:40:58;20.60;83.29
69543;SHT31;56762;49.494;11.768;2023-08-17T07:43:26;20.66;83.52
69543;SHT31;56762;49.494;11.768;2023-08-17T07:45:54;20.69;82.88
69543;SHT31;56762;49.494;11.768;2023-08-17T07:48:22;20.69;83.09
69543;SHT31;56762;49.494;11.768;2023-08-17T07:50:51;20.71;82.65
69543;SHT31;56762;49.494;11.768;2023-08-17T07:53:19;20.79;83.30
69543;SHT31;56762;49.494;11.768;2023-08-17T07:55:49;20.81;82.66
69543;SHT31;56762;49.494;11.768;2023-08-17T07:58:20;20.83;82.79
69543;SHT31;56762;49.494;11.768;2023-08-17T08:00:48;20.87;82.72
69543;SHT31;56762;49.494;11.768;2023-08-17T08:03:16;20.95;83.12
69543;SHT31;56762;49.494;11.768;2023-08-17T08:05:44;21.01;82.81
69543;SHT31;56762;49.494;11.768;2023-08-17T08:08:12;21.02;83.26
69543;SHT31;56762;49.494;11.768;2023-08-17T08:10:41;21.10;82.42
69543;SHT31;56762;49.494;11.768;2023-08-17T08:13:10;21.11;82.24
69543;SHT31;56762;49.494;11.768;2023-08-17T08:15:39;21.15;82.47
69543;SHT31;56762;49.494;11.768;2023-08-17T08:18:07;21.18;82.64
69543;SHT31;56762;49.494;11.768;2023-08-17T08:20:35;21.21;82.79
69543;SHT31;56762;49.494;11.768;2023-08-17T08:23:04;21.25;82.55
69543;SHT31;56762;49.494;11.768;2023-08-17T08:25:32;21.27;81.77
69543;SHT31;56762;49.494;11.768;2023-08-17T08:28:03;21.32;81.88
69543;SHT31;56762;49.494;11.768;2023-08-17T08:30:32;21.35;82.03
69543;SHT31;56762;49.494;11.768;2023-08-17T08:33:02;21.41;82.36
69543;SHT31;56762;49.494;11.768;2023-08-17T08:35:31;21.43;82.18
69543;SHT31;56762;49.494;11.768;2023-08-17T08:38:00;21.46;81.29
69543;SHT31;56762;49.494;11.768;2023-08-17T08:40:29;21.49;81.01
69543;SHT31;56762;49.494;11.768;2023-08-17T08:42:58;21.52;80.58
69543;SHT31;56762;49.494;11.768;2023-08-17T08:45:28;21.58;80.91
69543;SHT31;56762;49.494;11.768;2023-08-17T08:48:00;21.62;81.36
69543;SHT31;56762;49.494;11.768;2023-08-17T08:50:31;21.69;80.86
69543;SHT31;56762;49.494;11.768;2023-08-17T08:53:00;21.72;80.69
69543;SHT31;56762;49.494;11.768;2023-08-17T08:55:32;21.75;80.75
69543;SHT31;56762;49.494;11.768;2023-08-17T08:58:03;21.78;80.55
69543;SHT31;56762;49.494;11.768;2023-08-17T09:00:33;21.80;80.06
69543;SHT31;56762;49.494;11.768;2023-08-17T09:03:04;21.85;79.82
69543;SHT31;56762;49.494;11.768;2023-08-17T09:05:33;21.86;80.04
69543;SHT31;56762;49.494;11.768;2023-08-17T09:08:02;21.89;79.68
69543;SHT31;56762;49.494;11.768;2023-08-17T09:10:29;21.92;79.94
69543;SHT31;56762;49.494;11.768;2023-08-17T09:13:03;21.94;80.23
69543;SHT31;56762;49.494;11.768;2023-08-17T09:15:31;21.96;79.70
69543;SHT31;56762;49.494;11.768;2023-08-17T09:17:59;21.99;80.04
69543;SHT31;56762;49.494;11.768;2023-08-17T09:20:39;22.01;79.89
69543;SHT31;56762;49.494;11.768;2023-08-17T09:23:13;22.03;80.52
69543;SHT31;56762;49.494;11.768;2023-08-17T09:25:42;22.06;80.67
69543;SHT31;56762;49.494;11.768;2023-08-17T09:28:12;22.04;78.68
69543;SHT31;56762;49.494;11.768;2023-08-17T09:30:52;22.10;78.23
69543;SHT31;56762;49.494;11.768;2023-08-17T09:33:21;22.11;78.54
69543;SHT31;56762;49.494;11.768;2023-08-17T09:35:51;22.17;78.40
69543;SHT31;56762;49.494;11.768;2023-08-17T09:38:24;22.22;79.24
69543;SHT31;56762;49.494;11.768;2023-08-17T09:40:53;22.27;78.42
69543;SHT31;56762;49.494;11.768;2023-08-17T09:43:21;22.30;78.28
69543;SHT31;56762;49.494;11.768;2023-08-17T09:45:49;22.38;78.32
69543;SHT31;56762;49.494;11.768;2023-08-17T09:48:18;22.41;78.26
69543;SHT31;56762;49.494;11.768;2023-08-17T09:50:49;22.43;78.39
69543;SHT31;56762;49.494;11.768;2023-08-17T09:53:18;22.48;78.33
69543;SHT31;56762;49.494;11.768;2023-08-17T09:55:46;22.51;77.96
69543;SHT31;56762;49.494;11.768;2023-08-17T09:58:14;22.54;77.58
69543;SHT31;56762;49.494;11.768;2023-08-17T10:00:43;22.57;77.82
69543;SHT31;56762;49.494;11.768;2023-08-17T10:03:17;22.62;76.83
69543;SHT31;56762;49.494;11.768;2023-08-17T10:05:52;22.68;76.82
69543;SHT31;56762;49.494;11.768;2023-08-17T10:08:21;22.72;77.77
69543;SHT31;56762;49.494;11.768;2023-08-17T10:10:50;22.81;77.88
69543;SHT31;56762;49.494;11.768;2023-08-17T10:13:27;22.87;77.68
69543;SHT31;56762;49.494;11.768;2023-08-17T10:16:02;22.87;76.93
69543;SHT31;56762;49.494;11.768;2023-08-17T10:18:37;22.85;76.94
69543;SHT31;56762;49.494;11.768;2023-08-17T10:21:10;22.89;76.91
69543;SHT31;56762;49.494;11.768;2023-08-17T10:23:40;22.84;75.98
69543;SHT31;56762;49.494;11.768;2023-08-17T10:26:09;22.87;76.47
69543;SHT31;56762;49.494;11.768;2023-08-17T10:28:38;22.91;76.78
69543;SHT31;56762;49.494;11.768;2023-08-17T10:31:07;22.91;77.15
69543;SHT31;56762;49.494;11.768;2023-08-17T10:33:37;22.95;77.45
69543;SHT31;56762;49.494;11.768;2023-08-17T10:36:10;22.99;77.05
69543;SHT31;56762;49.494;11.768;2023-08-17T10:38:38;22.98;77.27
69543;SHT31;56762;49.494;11.768;2023-08-17T10:41:11;23.00;77.19
69543;SHT31;56762;49.494;11.768;2023-08-17T10:43:55;23.02;76.63
69543;SHT31;56762;49.494;11.768;2023-08-17T10:46:32;23.02;75.94
69543;SHT31;56762;49.494;11.768;2023-08-17T10:49:05;23.03;76.72
69543;SHT31;56762;49.494;11.768;2023-08-17T10:51:34;23.08;75.41
69543;SHT31;56762;49.494;11.768;2023-08-17T10:54:03;23.10;75.94
69543;SHT31;56762;49.494;11.768;2023-08-17T10:56:32;23.10;74.84
69543;SHT31;56762;49.494;11.768;2023-08-17T10:59:00;23.16;76.08
69543;SHT31;56762;49.494;11.768;2023-08-17T11:01:33;23.16;75.68
69543;SHT31;56762;49.494;11.768;2023-08-17T11:04:12;23.18;75.52
69543;SHT31;56762;49.494;11.768;2023-08-17T11:06:43;23.20;75.95
69543;SHT31;56762;49.494;11.768;2023-08-17T11:09:11;23.22;75.02
69543;SHT31;56762;49.494;11.768;2023-08-17T11:11:40;23.27;75.13
69543;SHT31;56762;49.494;11.768;2023-08-17T11:14:08;23.31;74.56
69543;SHT31;56762;49.494;11.768;2023-08-17T11:16:36;23.39;74.34
69543;SHT31;56762;49.494;11.768;2023-08-17T11:19:04;23.39;74.91
69543;SHT31;56762;49.494;11.768;2023-08-17T11:21:31;23.40;75.07
69543;SHT31;56762;49.494;11.768;2023-08-17T11:24:01;23.46;74.37
69543;SHT31;56762;49.494;11.768;2023-08-17T11:26:29;23.51;74.37
69543;SHT31;56762;49.494;11.768;2023-08-17T11:29:01;23.56;74.29
69543;SHT31;56762;49.494;11.768;2023-08-17T11:31:31;23.56;73.93
69543;SHT31;56762;49.494;11.768;2023-08-17T11:33:59;23.60;74.44
69543;SHT31;56762;49.494;11.768;2023-08-17T11:36:27;23.66;73.80
69543;SHT31;56762;49.494;11.768;2023-08-17T11:38:55;23.71;74.35
69543;SHT31;56762;49.494;11.768;2023-08-17T11:41:25;23.73;74.20
69543;SHT31;56762;49.494;11.768;2023-08-17T11:43:52;23.75;74.51
69543;SHT31;56762;49.494;11.768;2023-08-17T11:46:22;23.74;74.95
69543;SHT31;56762;49.494;11.768;2023-08-17T11:48:55;23.77;75.29
69543;SHT31;56762;49.494;11.768;2023-08-17T11:51:29;23.77;74.61
69543;SHT31;56762;49.494;11.768;2023-08-17T11:53:58;23.78;74.33
69543;SHT31;56762;49.494;11.768;2023-08-17T11:56:29;23.82;74.32
69543;SHT31;56762;49.494;11.768;2023-08-17T11:58:57;23.84;74.11
69543;SHT31;56762;49.494;11.768;2023-08-17T12:01:26;23.88;72.50
69543;SHT31;56762;49.494;11.768;2023-08-17T12:03:55;23.90;74.34
69543;SHT31;56762;49.494;11.768;2023-08-17T12:06:22;23.87;73.71
69543;SHT31;56762;49.494;11.768;2023-08-17T12:08:50;23.87;73.80
69543;SHT31;56762;49.494;11.768;2023-08-17T12:11:18;23.84;72.98
69543;SHT31;56762;49.494;11.768;2023-08-17T12:13:50;23.85;71.61
69543;SHT31;56762;49.494;11.768;2023-08-17T12:16:19;23.88;71.09
69543;SHT31;56762;49.494;11.768;2023-08-17T12:18:48;23.91;72.40
69543;SHT31;56762;49.494;11.768;2023-08-17T12:21:16;23.91;72.40
69543;SHT31;56762;49.494;11.768;2023-08-17T12:23:43;23.91;72.74
69543;SHT31;56762;49.494;11.768;2023-08-17T12:26:18;23.96;72.88
69543;SHT31;56762;49.494;11.768;2023-08-17T12:28:45;23.91;71.46
69543;SHT31;56762;49.494;11.768;2023-08-17T12:31:21;23.96;71.53
69543;SHT31;56762;49.494;11.768;2023-08-17T12:33:49;23.94;71.94
69543;SHT31;56762;49.494;11.768;2023-08-17T12:36:17;23.98;72.74
69543;SHT31;56762;49.494;11.768;2023-08-17T12:38:47;24.00;72.18
69543;SHT31;56762;49.494;11.768;2023-08-17T12:41:15;24.04;71.88
69543;SHT31;56762;49.494;11.768;2023-08-17T12:43:44;24.05;71.49
69543;SHT31;56762;49.494;11.768;2023-08-17T12:46:12;24.05;71.95
69543;SHT31;56762;49.494;11.768;2023-08-17T12:48:41;24.04;72.06
69543;SHT31;56762;49.494;11.768;2023-08-17T12:51:09;24.09;72.47
69543;SHT31;56762;49.494;11.768;2023-08-17T12:53:36;24.14;72.61
69543;SHT31;56762;49.494;11.768;2023-08-17T12:56:04;24.19;71.77
69543;SHT31;56762;49.494;11.768;2023-08-17T12:58:32;24.21;71.28
69543;SHT31;56762;49.494;11.768;2023-08-17T13:01:01;24.25;70.06
69543;SHT31;56762;49.494;11.768;2023-08-17T13:03:29;24.32;69.86
69543;SHT31;56762;49.494;11.768;2023-08-17T13:05:58;24.48;68.80
69543;SHT31;56762;49.494;11.768;2023-08-17T13:08:26;24.51;69.12
69543;SHT31;56762;49.494;11.768;2023-08-17T13:10:54;24.51;68.09
69543;SHT31;56762;49.494;11.768;2023-08-17T13:13:22;24.49;68.58
69543;SHT31;56762;49.494;11.768;2023-08-17T13:15:50;24.47;67.98
69543;SHT31;56762;49.494;11.768;2023-08-17T13:18:18;24.42;68.98
69543;SHT31;56762;49.494;11.768;2023-08-17T13:20:46;24.39;68.11
69543;SHT31;56762;49.494;11.768;2023-08-17T13:23:15;24.38;67.63
69543;SHT31;56762;49.494;11.768;2023-08-17T13:25:43;24.39;67.38
69543;SHT31;56762;49.494;11.768;2023-08-17T13:28:11;24.49;66.71
69543;SHT31;56762;49.494;11.768;2023-08-17T13:30:39;24.53;67.84
69543;SHT31;56762;49.494;11.768;2023-08-17T13:33:07;24.51;68.28
69543;SHT31;56762;49.494;11.768;2023-08-17T13:35:34;24.52;68.14
69543;SHT31;56762;49.494;11.768;2023-08-17T13:38:03;24.52;67.32
69543;SHT31;56762;49.494;11.768;2023-08-17T13:40:33;24.53;67.19
69543;SHT31;56762;49.494;11.768;2023-08-17T13:43:03;24.48;67.54
69543;SHT31;56762;49.494;11.768;2023-08-17T13:45:34;24.47;68.06
69543;SHT31;56762;49.494;11.768;2023-08-17T13:48:03;24.42;68.24
69543;SHT31;56762;49.494;11.768;2023-08-17T13:50:31;24.40;68.91
69543;SHT31;56762;49.494;11.768;2023-08-17T13:52:59;24.40;68.92
69543;SHT31;56762;49.494;11.768;2023-08-17T13:55:27;24.39;67.67
69543;SHT31;56762;49.494;11.768;2023-08-17T13:57:57;24.36;67.75
69543;SHT31;56762;49.494;11.768;2023-08-17T14:00:25;24.33;67.79
69543;SHT31;56762;49.494;11.768;2023-08-17T14:02:53;24.31;67.92
69543;SHT31;56762;49.494;11.768;2023-08-17T14:05:21;24.32;68.05
69543;SHT31;56762;49.494;11.768;2023-08-17T14:07:49;24.40;67.26
69543;SHT31;56762;49.494;11.768;2023-08-17T14:10:17;24.43;68.36
69543;SHT31;56762;49.494;11.768;2023-08-17T14:13:05;24.47;67.75
69543;SHT31;56762;49.494;11.768;2023-08-17T14:15:33;24.49;66.63
69543;SHT31;56762;49.494;11.768;2023-08-17T14:18:01;24.53;66.42
69543;SHT31;56762;49.494;11.768;2023-08-17T14:20:30;24.60;66.13
69543;SHT31;56762;49.494;11.768;2023-08-17T14:22:58;24.60;66.25
69543;SHT31;56762;49.494;11.768;2023-08-17T14:25:25;24.63;65.59
69543;SHT31;56762;49.494;11.768;2023-08-17T14:27:54;24.65;66.52
69543;SHT31;56762;49.494;11.768;2023-08-17T14:30:23;24.70;65.78
69543;SHT31;56762;49.494;11.768;2023-08-17T14:32:53;24.76;66.10
69543;SHT31;56762;49.494;11.768;2023-08-17T14:35:26;24.82;65.43
69543;SHT31;56762;49.494;11.768;2023-08-17T14:37:54;24.86;64.81
69543;SHT31;56762;49.494;11.768;2023-08-17T14:40:25;24.86;65.42
69543;SHT31;56762;49.494;11.768;2023-08-17T14:42:53;24.86;65.35
69543;SHT31;56762;49.494;11.768;2023-08-17T14:45:21;24.83;65.76
69543;SHT31;56762;49.494;11.768;2023-08-17T14:47:50;24.83;65.98
69543;SHT31;56762;49.494;11.768;2023-08-17T14:50:18;24.82;66.63
69543;SHT31;56762;49.494;11.768;2023-08-17T14:52:46;24.84;66.15
69543;SHT31;56762;49.494;11.768;2023-08-17T14:55:14;24.86;64.83
69543;SHT31;56762;49.494;11.768;2023-08-17T14:57:42;24.84;64.06
69543;SHT31;56762;49.494;11.768;2023-08-17T15:00:11;24.91;63.36
69543;SHT31;56762;49.494;11.768;2023-08-17T15:02:43;24.89;63.63
69543;SHT31;56762;49.494;11.768;2023-08-17T15:05:12;24.87;64.07
69543;SHT31;56762;49.494;11.768;2023-08-17T15:07:40;24.89;63.74
69543;SHT31;56762;49.494;11.768;2023-08-17T15:10:09;24.90;64.63
69543;SHT31;56762;49.494;11.768;2023-08-17T15:12:38;25.04;63.75
69543;SHT31;56762;49.494;11.768;2023-08-17T15:15:07;25.04;64.24
69543;SHT31;56762;49.494;11.768;2023-08-17T15:17:34;25.03;63.87
69543;SHT31;56762;49.494;11.768;2023-08-17T15:20:03;25.04;63.80
69543;SHT31;56762;49.494;11.768;2023-08-17T15:22:33;25.11;63.17
69543;SHT31;56762;49.494;11.768;2023-08-17T15:25:00;25.11;62.86
69543;SHT31;56762;49.494;11.768;2023-08-17T15:27:28;25.09;62.99